Time;durP1;ratioP1;P1;durP2;ratioP2;P2;SDS_P1;SDS_P2;PMS_P1;PMS_P2;Temp;Humidity;BMP_temperature;BMP_pressure;BME280_temperature;BME280_humidity;BME280_pressure;Samples;Min_cycle;Max_cycle;Signal;HPM_P1;HPM_P2
2022/12/29 00:01:37;;;;;;;413.73;189.13;;;3.10;99.90;;;;;;5097287;28;20043;-77
2022/12/29 00:04:04;;;;;;;459.88;205.07;;;3.00;99.90;;;;;;5097393;28;20462;-77
2022/12/29 00:06:30;;;;;;;432.80;192.82;;;3.00;99.90;;;;;;5096964;28;20028;-77
2022/12/29 00:08:56;;;;;;;454.80;205.57;;;3.00;99.90;;;;;;5097228;28;20028;-77
2022/12/29 00:11:27;;;;;;;466.17;209.98;;;3.00;99.90;;;;;;5095769;28;20039;-77
2022/12/29 00:16:43;;;;;;;399.60;177.32;;;2.90;99.90;;;;;;5096871;28;20032;-77
2022/12/29 00:35:44;;;;;;;217.15;105.72;;;3.00;99.90;;;;;;5096588;28;20039;-77
2022/12/29 00:46:25;;;;;;;196.68;96.85;;;3.00;99.90;;;;;;5096314;28;20036;-77
2022/12/29 00:51:35;;;;;;;183.27;91.85;;;2.80;99.90;;;;;;5094968;28;20028;-77
2022/12/29 00:54:01;;;;;;;198.88;97.72;;;2.70;99.90;;;;;;5094647;28;20394;-77
2022/12/29 00:56:27;;;;;;;197.45;97.40;;;2.60;99.90;;;;;;5096171;28;20024;-77
2022/12/29 00:58:53;;;;;;;218.80;105.05;;;2.40;99.90;;;;;;5096013;28;20024;-77
2022/12/29 01:01:19;;;;;;;209.85;100.65;;;2.30;99.90;;;;;;5077634;28;20381;-77
2022/12/29 01:03:45;;;;;;;213.10;104.25;;;2.20;99.90;;;;;;5094784;28;20032;-77
2022/12/29 01:06:11;;;;;;;220.32;108.15;;;2.10;99.90;;;;;;5077480;28;20430;-77
2022/12/29 01:08:38;;;;;;;214.48;102.22;;;2.00;99.90;;;;;;5095992;28;20023;-77
2022/12/29 01:11:10;;;;;;;217.48;106.63;;;1.90;99.90;;;;;;5096127;28;20028;-77
2022/12/29 01:13:41;;;;;;;209.40;100.40;;;2.00;99.90;;;;;;5094572;28;20031;-77
2022/12/29 01:16:06;;;;;;;;;;;1.90;99.90;;;;;;5078055;28;20036;-77
2022/12/29 01:18:33;;;;;;;221.43;105.07;;;1.90;99.90;;;;;;5095639;28;19938;-77
2022/12/29 01:21:01;;;;;;;229.60;109.82;;;1.90;99.90;;;;;;5094437;28;20070;-77
2022/12/29 01:23:27;;;;;;;241.15;116.50;;;1.80;99.90;;;;;;5094266;28;20023;-77
2022/12/29 01:25:53;;;;;;;249.40;116.22;;;1.80;99.90;;;;;;5094296;28;20036;-77
2022/12/29 01:28:19;;;;;;;261.08;120.03;;;1.70;99.90;;;;;;5094235;28;20052;-77
2022/12/29 01:30:45;;;;;;;235.57;110.13;;;1.80;99.90;;;;;;5094220;28;20060;-77
2022/12/29 01:33:12;;;;;;;282.48;130.05;;;1.80;99.90;;;;;;5077468;28;20032;-77
2022/12/29 01:35:39;;;;;;;372.55;167.80;;;1.90;99.90;;;;;;5077298;28;20035;-77
2022/12/29 01:38:05;;;;;;;379.23;172.90;;;1.90;99.90;;;;;;5093844;28;20032;-77
2022/12/29 01:40:31;;;;;;;409.00;185.38;;;1.80;99.90;;;;;;5110284;28;20381;-77
2022/12/29 01:42:57;;;;;;;376.10;175.75;;;1.80;99.90;;;;;;5077054;28;20036;-77
2022/12/29 01:45:23;;;;;;;352.25;160.52;;;1.80;99.90;;;;;;5095383;28;20032;-77
2022/12/29 01:47:54;;;;;;;318.17;143.90;;;1.70;99.90;;;;;;5093981;28;20085;-77
2022/12/29 01:50:30;;;;;;;305.98;142.60;;;1.70;99.90;;;;;;5095376;28;20036;-77
2022/12/29 01:53:01;;;;;;;323.15;148.00;;;1.80;99.90;;;;;;5093716;28;20110;-77
2022/12/29 01:55:30;;;;;;;333.38;153.30;;;1.80;99.90;;;;;;5093727;28;20032;-77
2022/12/29 01:58:01;;;;;;;333.55;151.10;;;1.60;99.90;;;;;;5094947;28;20489;-77
2022/12/29 02:00:26;;;;;;;;;;;1.60;99.90;;;;;;5094133;28;20358;-77
2022/12/29 02:02:53;;;;;;;280.98;128.85;;;1.50;99.90;;;;;;5094777;28;20031;-77
2022/12/29 02:05:33;;;;;;;264.63;121.25;;;1.50;99.90;;;;;;5093810;28;20031;-77
2022/12/29 02:08:01;;;;;;;263.17;119.73;;;1.50;99.90;;;;;;5095030;28;20036;-77
2022/12/29 02:10:31;;;;;;;264.30;127.18;;;1.60;99.90;;;;;;5094856;28;20020;-77
2022/12/29 02:12:57;;;;;;;314.92;146.32;;;1.70;99.90;;;;;;5093540;28;20494;-77
2022/12/29 02:15:46;;;;;;;339.33;150.68;;;1.70;99.90;;;;;;5094876;28;20035;-77
2022/12/29 02:18:22;;;;;;;345.10;149.27;;;1.60;99.90;;;;;;5093224;28;20036;-77
2022/12/29 02:21:29;;;;;;;404.25;175.40;;;1.60;99.90;;;;;;5093505;28;20043;-77
2022/12/29 02:24:30;;;;;;;339.52;146.30;;;1.60;99.90;;;;;;5076694;28;20069;-77
2022/12/29 02:27:06;;;;;;;;;;;1.60;99.90;;;;;;5062959;28;20054;-76
2022/12/29 02:29:47;;;;;;;320.33;137.30;;;1.40;99.90;;;;;;5094680;28;19907;-77
2022/12/29 02:32:37;;;;;;;281.20;121.88;;;1.40;99.90;;;;;;5076472;28;20513;-76
2022/12/29 02:35:08;;;;;;;265.60;118.65;;;1.50;99.90;;;;;;5076592;28;20511;-77
2022/12/29 02:37:58;;;;;;;295.23;136.45;;;1.40;99.90;;;;;;5093276;28;20046;-76
2022/12/29 02:40:38;;;;;;;256.67;121.72;;;1.30;99.90;;;;;;5093323;28;20528;-76
2022/12/29 02:43:25;;;;;;;258.60;117.15;;;1.30;99.90;;;;;;5076525;28;20028;-76
2022/12/29 02:45:59;;;;;;;236.90;109.13;;;1.30;99.90;;;;;;5077724;28;20054;-77
2022/12/29 02:48:55;;;;;;;225.10;100.43;;;1.30;99.90;;;;;;5094450;28;20101;-76
2022/12/29 02:51:26;;;;;;;303.80;133.95;;;1.40;99.90;;;;;;5109208;28;20184;-76
2022/12/29 02:56:38;;;;;;;294.85;129.40;;;1.40;99.90;;;;;;5097169;28;20068;-76
2022/12/29 02:59:05;;;;;;;323.00;144.38;;;1.40;99.90;;;;;;5097099;28;20056;-76
2022/12/29 03:05:02;;;;;;;295.77;133.40;;;1.40;99.90;;;;;;5097076;28;20039;-76
2022/12/29 03:07:44;;;;;;;332.67;146.75;;;1.30;99.90;;;;;;5097118;28;20371;-76
2022/12/29 03:10:16;;;;;;;289.15;126.57;;;1.20;99.90;;;;;;5098247;28;20063;-77
2022/12/29 03:16:02;;;;;;;293.45;135.77;;;1.30;99.90;;;;;;5097090;28;20024;-77
2022/12/29 03:18:45;;;;;;;296.85;134.15;;;1.20;99.90;;;;;;5096524;28;20039;-77
2022/12/29 03:22:26;;;;;;;281.08;128.60;;;1.20;99.90;;;;;;5096730;28;20028;-76
2022/12/29 03:24:10;;;;;;;294.23;137.43;;;1.20;99.90;;;;;;5096269;28;20558;-76
2022/12/29 03:26:37;;;;;;;292.00;133.30;;;1.30;99.90;;;;;;5097741;28;20047;-76
2022/12/29 03:29:04;;;;;;;313.88;146.20;;;1.20;99.90;;;;;;5096629;28;20027;-76
2022/12/29 03:31:30;;;;;;;311.80;145.60;;;1.20;99.90;;;;;;5079584;28;20038;-76
2022/12/29 03:33:58;;;;;;;270.48;127.00;;;1.10;99.90;;;;;;5096472;28;20099;-76
2022/12/29 03:36:33;;;;;;;271.13;124.25;;;1.10;99.90;;;;;;5079486;28;20059;-76
2022/12/29 03:39:11;;;;;;;266.25;120.97;;;1.10;99.90;;;;;;5096416;28;20036;-77
2022/12/29 03:41:39;;;;;;;265.58;119.97;;;1.00;99.90;;;;;;5096332;28;20477;-76
2022/12/29 03:44:07;;;;;;;250.80;114.20;;;1.00;99.90;;;;;;5079699;28;20049;-76
2022/12/29 03:46:34;;;;;;;244.07;109.10;;;1.10;99.90;;;;;;5096253;28;20028;-76
2022/12/29 03:49:00;;;;;;;242.80;113.07;;;1.00;99.90;;;;;;5079471;28;20560;-76
2022/12/29 03:51:26;;;;;;;259.70;120.15;;;1.10;99.90;;;;;;5096043;28;20112;-76
2022/12/29 03:53:53;;;;;;;223.43;104.55;;;1.20;99.90;;;;;;5096004;28;20060;-76
2022/12/29 03:56:21;;;;;;;225.48;104.70;;;1.10;99.90;;;;;;5096063;28;20054;-76
2022/12/29 03:58:48;;;;;;;183.93;88.78;;;1.00;99.90;;;;;;5095862;28;20028;-76
2022/12/29 04:01:19;;;;;;;155.00;74.65;;;1.10;99.90;;;;;;5095543;28;20031;-76
2022/12/29 04:03:45;;;;;;;181.15;84.68;;;1.10;99.90;;;;;;5129563;27;20028;-76
2022/12/29 04:06:11;;;;;;;162.30;77.15;;;1.00;99.90;;;;;;5091010;28;20040;-76
2022/12/29 04:08:52;;;;;;;191.55;86.40;;;1.10;99.90;;;;;;5043035;28;20035;-76
2022/12/29 04:11:18;;;;;;;198.73;87.80;;;1.20;99.90;;;;;;5074178;28;20480;-76
2022/12/29 04:13:44;;;;;;;157.68;76.38;;;1.30;99.90;;;;;;5057311;28;20036;-76
2022/12/29 04:16:14;;;;;;;102.65;52.00;;;1.20;99.90;;;;;;5057537;28;20075;-76
2022/12/29 04:18:39;;;;;;;123.90;60.53;;;1.20;99.90;;;;;;5057238;28;20036;-76
2022/12/29 04:21:06;;;;;;;119.30;56.83;;;1.30;99.90;;;;;;5057522;28;20029;-76
2022/12/29 04:23:37;;;;;;;122.40;58.55;;;1.20;99.90;;;;;;5091078;28;20119;-76
2022/12/29 04:26:07;;;;;;;131.20;63.05;;;1.30;99.90;;;;;;5057297;28;20032;-76
2022/12/29 04:28:36;;;;;;;132.17;61.63;;;1.20;99.90;;;;;;5034014;28;20049;-76
2022/12/29 04:31:21;;;;;;;135.02;65.10;;;1.20;99.90;;;;;;5034108;28;20051;-76
2022/12/29 04:33:49;;;;;;;144.63;67.30;;;1.20;99.90;;;;;;5017496;28;20117;-76
2022/12/29 04:36:15;;;;;;;154.88;71.90;;;1.30;99.90;;;;;;5019544;28;20075;-76
2022/12/29 04:38:43;;;;;;;146.57;70.50;;;1.30;99.90;;;;;;5036928;28;20584;-76
2022/12/29 04:41:09;;;;;;;156.98;72.07;;;1.30;99.90;;;;;;5037127;28;20029;-76
2022/12/29 04:43:38;;;;;;;167.05;75.03;;;1.20;99.90;;;;;;5020781;28;20475;-76
2022/12/29 04:46:07;;;;;;;152.48;75.88;;;1.20;99.90;;;;;;5053896;28;20037;-76
2022/12/29 04:48:51;;;;;;;160.77;78.57;;;1.20;99.90;;;;;;5053686;28;20068;-76
2022/12/29 04:51:38;;;;;;;170.50;79.30;;;1.20;99.90;;;;;;5053358;28;20037;-76
2022/12/29 04:54:05;;;;;;;167.68;81.82;;;1.20;99.90;;;;;;5036687;28;20037;-76
2022/12/29 04:56:32;;;;;;;162.82;75.85;;;1.30;99.90;;;;;;5036872;28;20029;-76
2022/12/29 04:58:58;;;;;;;168.57;83.07;;;1.30;99.90;;;;;;5031379;28;20105;-76
2022/12/29 05:01:24;;;;;;;171.32;85.90;;;1.40;99.90;;;;;;5111818;28;20056;-76
2022/12/29 05:03:51;;;;;;;189.15;91.70;;;1.40;99.90;;;;;;5094490;28;20068;-76
2022/12/29 05:06:18;;;;;;;171.43;86.00;;;1.30;99.90;;;;;;5094760;28;20032;-76
2022/12/29 05:08:45;;;;;;;193.88;96.75;;;1.30;99.90;;;;;;5094534;28;20516;-76
2022/12/29 05:11:11;;;;;;;202.43;98.70;;;1.20;99.90;;;;;;5077679;28;20146;-76
2022/12/29 05:13:37;;;;;;;197.02;93.18;;;1.20;99.90;;;;;;5128763;27;20051;-76
2022/12/29 05:16:04;;;;;;;183.32;90.82;;;1.30;99.90;;;;;;5094648;28;20024;-76
2022/12/29 05:18:32;;;;;;;202.55;99.53;;;1.40;99.90;;;;;;5095560;28;20455;-76
2022/12/29 05:20:58;;;;;;;201.43;97.13;;;1.40;99.90;;;;;;5094428;28;20063;-76
2022/12/29 05:23:24;;;;;;;188.48;94.35;;;1.30;99.90;;;;;;5077293;28;20050;-76
2022/12/29 05:25:58;;;;;;;187.18;90.85;;;1.40;99.90;;;;;;5094256;28;20032;-76
2022/12/29 05:28:45;;;;;;;176.48;85.13;;;1.60;99.90;;;;;;5094325;28;20047;-77
2022/12/29 05:31:16;;;;;;;184.77;92.65;;;1.80;99.90;;;;;;5094349;28;20032;-76
2022/12/29 05:33:43;;;;;;;185.13;86.18;;;1.70;99.90;;;;;;5094110;28;20039;-77
2022/12/29 05:36:09;;;;;;;179.85;83.93;;;1.80;99.90;;;;;;5095486;28;20036;-76
2022/12/29 05:38:38;;;;;;;192.37;91.20;;;1.80;99.90;;;;;;5094085;28;20111;-76
2022/12/29 05:41:05;;;;;;;186.88;86.72;;;1.70;99.90;;;;;;5094144;28;20028;-76
2022/12/29 05:43:46;;;;;;;172.27;81.28;;;1.70;99.90;;;;;;5094212;28;20384;-76
2022/12/29 05:46:28;;;;;;;168.30;81.63;;;1.80;99.90;;;;;;5108607;28;20378;-76
2022/12/29 05:49:06;;;;;;;172.70;80.68;;;1.90;99.90;;;;;;5094013;28;20497;-76
2022/12/29 05:51:37;;;;;;;190.25;89.43;;;1.80;99.90;;;;;;5095129;28;20028;-77
2022/12/29 05:54:03;;;;;;;171.63;83.97;;;1.80;99.90;;;;;;5127828;27;20028;-76
2022/12/29 05:56:29;;;;;;;408.25;148.00;;;1.80;99.90;;;;;;5093603;28;20039;-76
2022/12/29 05:58:59;;;;;;;532.20;191.40;;;1.80;99.90;;;;;;5077098;28;20072;-76
2022/12/29 06:01:25;;;;;;;326.48;125.70;;;1.80;99.90;;;;;;5093791;28;20028;-76
2022/12/29 06:03:54;;;;;;;252.85;107.85;;;1.90;99.90;;;;;;5093610;28;20114;-76
2022/12/29 06:06:20;;;;;;;224.05;100.70;;;1.90;99.90;;;;;;5093663;28;20031;-76
2022/12/29 06:08:47;;;;;;;243.57;101.85;;;2.10;99.90;;;;;;5093497;28;20385;-76
2022/12/29 06:11:13;;;;;;;200.57;92.70;;;2.20;99.90;;;;;;5076603;28;20038;-76
2022/12/29 06:13:44;;;;;;;166.68;80.25;;;2.20;99.90;;;;;;5093462;28;20481;-76
2022/12/29 06:16:12;;;;;;;173.38;79.22;;;2.30;99.90;;;;;;5093372;28;20123;-76
2022/12/29 06:18:39;;;;;;;173.90;78.90;;;2.30;99.90;;;;;;5093138;28;20038;-76
2022/12/29 06:21:05;;;;;;;175.90;85.43;;;2.30;99.90;;;;;;5093950;28;20024;-76
2022/12/29 06:23:31;;;;;;;168.30;80.13;;;2.30;99.90;;;;;;5098408;28;20028;-76
2022/12/29 06:25:58;;;;;;;175.38;81.00;;;2.20;99.90;;;;;;5103829;28;20066;-76
2022/12/29 06:28:24;;;;;;;150.15;72.70;;;2.20;99.90;;;;;;5091788;28;20051;-76
2022/12/29 06:30:50;;;;;;;146.70;68.90;;;2.20;99.90;;;;;;5113367;28;20032;-76
2022/12/29 06:33:17;;;;;;;152.98;72.28;;;2.40;99.90;;;;;;5113072;28;20129;-76
2022/12/29 06:35:45;;;;;;;145.93;68.15;;;2.50;99.90;;;;;;5114852;28;20023;-76
2022/12/29 06:38:11;;;;;;;165.13;74.30;;;2.60;99.90;;;;;;5114271;28;20087;-76
2022/12/29 06:40:38;;;;;;;170.75;76.72;;;2.50;99.90;;;;;;5113833;28;20024;-77
2022/12/29 06:43:03;;;;;;;162.43;74.70;;;2.50;99.90;;;;;;5113991;28;20036;-77
2022/12/29 06:45:48;;;;;;;151.25;70.60;;;2.40;99.90;;;;;;5105369;28;20400;-76
2022/12/29 06:48:14;;;;;;;265.05;113.07;;;2.40;99.90;;;;;;5111007;28;20024;-76
2022/12/29 06:50:40;;;;;;;198.88;88.13;;;2.30;99.90;;;;;;5110517;28;20028;-77
2022/12/29 06:53:06;;;;;;;460.15;184.38;;;2.30;99.90;;;;;;5109253;28;20032;-77
2022/12/29 06:55:32;;;;;;;367.90;149.27;;;2.30;99.90;;;;;;5148018;27;20028;-77
2022/12/29 06:58:01;;;;;;;308.70;132.85;;;2.20;99.90;;;;;;5110197;28;20165;-76
2022/12/29 07:00:27;;;;;;;258.42;118.00;;;2.20;99.90;;;;;;5111399;28;20051;-77
2022/12/29 07:02:57;;;;;;;245.63;109.90;;;2.10;99.90;;;;;;5112310;28;20024;-77
2022/12/29 07:05:25;;;;;;;204.00;99.32;;;2.10;99.90;;;;;;5108883;28;20032;-76
2022/12/29 07:07:52;;;;;;;258.83;107.30;;;2.10;99.90;;;;;;5109275;28;20024;-77
2022/12/29 07:10:18;;;;;;;235.50;103.10;;;2.20;99.90;;;;;;5105430;28;20023;-77
2022/12/29 07:12:43;;;;;;;227.80;98.25;;;2.30;99.90;;;;;;5107436;28;20050;-74
2022/12/29 07:15:10;;;;;;;228.65;97.60;;;2.40;99.90;;;;;;5113690;28;20039;-74
2022/12/29 07:17:36;;;;;;;203.90;86.13;;;2.50;99.90;;;;;;5110599;28;20487;-74
2022/12/29 07:20:02;;;;;;;186.48;84.10;;;2.60;99.90;;;;;;5101985;28;20024;-74
2022/12/29 07:22:28;;;;;;;192.05;87.53;;;2.60;99.90;;;;;;5113504;28;20031;-74
2022/12/29 07:24:54;;;;;;;211.35;92.50;;;2.70;99.90;;;;;;5112343;28;20027;-76
2022/12/29 07:27:20;;;;;;;209.27;92.75;;;3.00;99.90;;;;;;5112075;28;20046;-76
2022/12/29 07:29:46;;;;;;;208.05;94.68;;;3.40;99.90;;;;;;5113471;28;20028;-75
2022/12/29 07:32:12;;;;;;;195.98;94.13;;;4.10;99.90;;;;;;5091227;28;20028;-75
2022/12/29 07:34:39;;;;;;;207.65;97.85;;;5.20;99.90;;;;;;5111118;28;20469;-74
2022/12/29 07:37:06;;;;;;;180.45;91.03;;;6.20;99.90;;;;;;5113403;28;20114;-74
2022/12/29 07:39:32;;;;;;;183.68;91.75;;;6.80;99.90;;;;;;5110312;28;20342;-74
2022/12/29 07:41:57;;;;;;;207.15;99.65;;;8.00;99.90;;;;;;5112360;28;20116;-74
2022/12/29 07:44:26;;;;;;;220.93;112.68;;;8.50;98.20;;;;;;5119476;27;20604;-74
2022/12/29 07:47:11;;;;;;;212.27;107.65;;;9.10;95.00;;;;;;5101861;28;20019;-73
2022/12/29 07:49:37;;;;;;;230.93;114.72;;;9.90;93.20;;;;;;5109225;28;20059;-73
2022/12/29 07:52:03;;;;;;;231.15;117.97;;;10.10;90.50;;;;;;5132613;27;20036;-73
2022/12/29 07:54:29;;;;;;;264.63;134.43;;;10.40;86.70;;;;;;5108433;28;20028;-73
2022/12/29 07:56:55;;;;;;;306.95;153.02;;;11.60;85.10;;;;;;5101679;28;20042;-73
2022/12/29 07:59:22;;;;;;;353.50;176.88;;;12.20;78.10;;;;;;5106116;28;20028;-74
2022/12/29 08:01:48;;;;;;;376.05;195.98;;;12.50;74.80;;;;;;5103304;27;20020;-74
2022/12/29 08:04:14;;;;;;;337.08;176.02;;;12.80;69.30;;;;;;5112137;28;20449;-74
2022/12/29 08:06:39;;;;;;;305.90;159.65;;;12.60;74.20;;;;;;5104210;28;20382;-74
2022/12/29 08:09:07;;;;;;;315.63;167.82;;;13.10;70.00;;;;;;5111730;27;20027;-75
2022/12/29 08:11:33;;;;;;;321.05;168.73;;;12.90;68.90;;;;;;5110500;28;20111;-75
2022/12/29 08:13:59;;;;;;;356.55;188.80;;;12.10;73.50;;;;;;5105775;28;20074;-75
2022/12/29 08:16:25;;;;;;;369.83;199.55;;;12.60;72.20;;;;;;5113931;28;20024;-76
2022/12/29 08:18:51;;;;;;;372.52;202.57;;;11.60;71.80;;;;;;5102651;28;20036;-76
2022/12/29 08:21:18;;;;;;;354.50;193.15;;;10.30;76.90;;;;;;5105878;28;20154;-76
2022/12/29 08:23:43;;;;;;;341.00;187.48;;;10.10;79.40;;;;;;5104667;27;20066;-77
2022/12/29 08:26:10;;;;;;;300.88;158.75;;;9.50;84.10;;;;;;5101432;28;20174;-76
2022/12/29 08:28:36;;;;;;;295.00;151.63;;;9.30;91.80;;;;;;5110843;28;20036;-76
2022/12/29 08:31:03;;;;;;;307.48;156.18;;;10.60;89.10;;;;;;5092816;28;20469;-75
2022/12/29 08:33:30;;;;;;;301.70;153.40;;;11.50;83.30;;;;;;5108603;28;20050;-75
2022/12/29 08:36:02;;;;;;;278.02;146.40;;;12.30;80.00;;;;;;5101056;28;20036;-75
2022/12/29 08:38:29;;;;;;;284.25;142.80;;;13.60;72.40;;;;;;5101711;28;20024;-75
2022/12/29 08:41:00;;;;;;;269.52;143.27;;;13.90;72.40;;;;;;5103444;28;20028;-75
2022/12/29 08:43:27;;;;;;;277.95;146.48;;;14.70;66.90;;;;;;5100696;28;20393;-73
2022/12/29 08:46:03;;;;;;;227.73;123.10;;;14.90;64.30;;;;;;5108184;27;21232;-74
2022/12/29 08:48:33;;;;;;;222.00;119.82;;;14.60;63.80;;;;;;5115519;27;20031;-74
2022/12/29 08:51:00;;;;;;;237.63;125.78;;;14.80;62.20;;;;;;5105650;27;20046;-75
2022/12/29 08:53:26;;;;;;;233.90;124.22;;;13.60;65.40;;;;;;5102932;28;20023;-74
2022/12/29 08:55:57;;;;;;;223.95;122.88;;;12.80;66.50;;;;;;5104698;28;20046;-74
2022/12/29 08:58:25;;;;;;;211.75;114.70;;;12.00;69.90;;;;;;5102544;28;20034;-75
2022/12/29 09:00:55;;;;;;;225.80;119.65;;;11.50;71.80;;;;;;5090778;27;20031;-77
2022/12/29 09:03:22;;;;;;;224.88;119.85;;;10.70;74.60;;;;;;5101765;27;20047;-76
2022/12/29 09:05:55;;;;;;;232.38;119.32;;;10.50;80.10;;;;;;5103445;27;20384;-76
2022/12/29 09:08:22;;;;;;;221.50;122.25;;;10.70;79.20;;;;;;5099642;28;20024;-76
2022/12/29 09:10:48;;;;;;;225.32;119.72;;;10.60;79.60;;;;;;5104924;28;20024;-77
2022/12/29 09:13:15;;;;;;;226.40;123.50;;;10.40;81.80;;;;;;5099859;28;20036;-77
2022/12/29 09:15:41;;;;;;;225.07;125.60;;;9.80;86.50;;;;;;5110457;28;20480;-77
2022/12/29 09:18:09;;;;;;;229.45;124.28;;;9.50;87.20;;;;;;5091481;28;20035;-77
2022/12/29 09:20:36;;;;;;;242.57;128.02;;;9.40;90.00;;;;;;5096776;28;20021;-77
2022/12/29 09:23:03;;;;;;;241.10;128.70;;;9.10;92.20;;;;;;5109788;28;20068;-77
2022/12/29 09:25:29;;;;;;;249.13;129.82;;;9.00;94.10;;;;;;5112063;28;20502;-77
2022/12/29 09:27:55;;;;;;;260.83;136.85;;;8.90;97.10;;;;;;5113826;28;20043;-77
2022/12/29 09:30:23;;;;;;;241.07;130.45;;;8.60;97.90;;;;;;5114083;28;20052;-77
2022/12/29 09:32:49;;;;;;;240.57;128.75;;;8.80;98.20;;;;;;5108672;28;20028;-77
2022/12/29 09:35:16;;;;;;;243.27;131.68;;;8.60;98.20;;;;;;5106126;28;20622;-77
2022/12/29 09:37:43;;;;;;;239.55;126.82;;;8.30;99.90;;;;;;5092561;28;20176;-77
2022/12/29 09:40:29;;;;;;;234.25;124.72;;;8.20;99.90;;;;;;5097540;28;20469;-76
2022/12/29 09:43:17;;;;;;;240.35;125.15;;;8.50;99.90;;;;;;5102467;28;20278;-75
2022/12/29 09:45:52;;;;;;;248.48;126.20;;;9.40;99.90;;;;;;5109522;28;20112;-75
2022/12/29 09:48:23;;;;;;;240.02;130.48;;;10.30;99.40;;;;;;5114927;28;20650;-74
2022/12/29 09:50:54;;;;;;;244.77;128.52;;;11.40;93.30;;;;;;5113948;28;20053;-74
2022/12/29 09:53:36;;;;;;;253.95;133.55;;;12.20;90.50;;;;;;5114580;28;20032;-74
2022/12/29 09:56:03;;;;;;;237.13;128.73;;;13.20;84.60;;;;;;5107190;28;20086;-74
2022/12/29 09:58:40;;;;;;;234.73;127.38;;;13.70;79.50;;;;;;5094800;28;20040;-74
2022/12/29 10:16:41;;;;;;;263.23;139.75;;;16.80;62.70;;;;;;5045928;28;20039;-74
2022/12/29 10:19:34;;;;;;;273.20;142.80;;;16.50;60.50;;;;;;5117029;27;20087;-74
2022/12/29 10:22:15;;;;;;;246.27;135.60;;;17.00;60.90;;;;;;5090212;28;20042;-74
2022/12/29 10:24:41;;;;;;;;;;;17.30;59.90;;;;;;5104519;28;20471;-74
2022/12/29 10:27:16;;;;;;;255.63;140.52;;;17.80;58.00;;;;;;5118512;27;19998;-75
2022/12/29 10:29:55;;;;;;;249.15;141.13;;;17.70;57.40;;;;;;5099921;28;20039;-75
2022/12/29 10:32:38;;;;;;;254.82;141.00;;;17.40;57.40;;;;;;5100387;28;20063;-76
2022/12/29 10:35:20;;;;;;;238.82;139.32;;;16.30;59.10;;;;;;5107615;28;20107;-76
2022/12/29 10:37:51;;;;;;;236.23;139.40;;;15.80;62.70;;;;;;5104969;28;20119;-76
2022/12/29 10:40:43;;;;;;;241.27;136.20;;;16.20;61.50;;;;;;5095046;28;20450;-76
2022/12/29 10:43:22;;;;;;;240.55;138.38;;;16.00;62.50;;;;;;5110323;28;20032;-76
2022/12/29 10:45:49;;;;;;;242.93;139.30;;;16.00;63.00;;;;;;5114927;28;20018;-77
2022/12/29 10:48:45;;;;;;;231.57;131.90;;;15.40;64.10;;;;;;5096288;28;20023;-77
2022/12/29 10:51:24;;;;;;;233.73;134.60;;;15.20;65.90;;;;;;5111239;28;20039;-76
2022/12/29 10:54:22;;;;;;;244.30;133.35;;;15.00;67.10;;;;;;5107054;28;20031;-77
2022/12/29 10:57:01;;;;;;;249.93;140.32;;;15.30;68.30;;;;;;5104064;28;20101;-77
2022/12/29 10:59:31;;;;;;;264.02;145.05;;;15.20;67.50;;;;;;5098393;28;20029;-77
2022/12/29 11:02:26;;;;;;;241.30;139.98;;;14.80;67.90;;;;;;5114981;28;20024;-77
2022/12/29 11:04:58;;;;;;;259.25;146.82;;;14.90;69.80;;;;;;5113939;28;20016;-76
2022/12/29 11:07:25;;;;;;;262.95;148.35;;;15.50;69.70;;;;;;5120676;28;20472;-76
2022/12/29 11:09:52;;;;;;;252.95;148.82;;;16.10;68.10;;;;;;5110908;28;20035;-76
2022/12/29 11:12:29;;;;;;;269.15;153.45;;;16.90;65.50;;;;;;5123195;27;20640;-76
2022/12/29 11:15:12;;;;;;;277.33;157.70;;;17.60;60.60;;;;;;5112548;27;20035;-76
2022/12/29 11:17:53;;;;;;;298.30;169.85;;;17.70;62.30;;;;;;5106630;28;20389;-75
2022/12/29 11:20:37;;;;;;;299.70;166.40;;;18.50;57.90;;;;;;5118044;27;20048;-75
2022/12/29 11:23:05;;;;;;;272.00;157.43;;;18.30;59.40;;;;;;5116474;28;20054;-75
2022/12/29 11:25:31;;;;;;;287.77;159.43;;;18.80;57.60;;;;;;5111771;27;20529;-75
2022/12/29 11:28:01;;;;;;;268.20;152.40;;;19.40;57.90;;;;;;5124358;27;20400;-74
2022/12/29 11:30:30;;;;;;;275.27;150.17;;;20.30;54.80;;;;;;5126129;27;20079;-75
2022/12/29 11:32:57;;;;;;;268.45;153.52;;;20.80;52.60;;;;;;5137058;27;20263;-75
2022/12/29 11:35:42;;;;;;;244.57;138.20;;;21.10;51.80;;;;;;5130611;27;20031;-76
2022/12/29 11:38:36;;;;;;;253.27;143.88;;;20.80;52.00;;;;;;5117240;28;20037;-75
2022/12/29 11:41:03;;;;;;;262.67;143.65;;;20.00;52.30;;;;;;5116470;28;20024;-76
2022/12/29 11:43:43;;;;;;;246.13;134.68;;;20.00;53.50;;;;;;5123429;27;20024;-76
2022/12/29 11:46:32;;;;;;;238.02;122.38;;;19.90;53.90;;;;;;5112422;28;20622;-76
2022/12/29 11:49:05;;;;;;;205.90;111.18;;;20.00;54.00;;;;;;5115094;28;20031;-75
2022/12/29 11:51:43;;;;;;;198.50;110.75;;;20.90;50.90;;;;;;5117265;27;20028;-76
2022/12/29 11:54:23;;;;;;;183.65;102.38;;;20.20;50.60;;;;;;5112625;27;20164;-76
2022/12/29 11:56:51;;;;;;;179.95;97.10;;;19.70;52.20;;;;;;5113530;27;20024;-76
2022/12/29 11:59:37;;;;;;;167.70;95.20;;;19.30;52.40;;;;;;5103432;27;20043;-76
2022/12/29 12:02:41;;;;;;;177.30;95.75;;;19.00;53.80;;;;;;5099855;28;20047;-77
2022/12/29 12:05:16;;;;;;;173.93;92.53;;;18.90;53.40;;;;;;5117258;27;20069;-77
2022/12/29 12:07:59;;;;;;;162.23;83.55;;;18.70;56.00;;;;;;5117572;27;20488;-77
2022/12/29 12:10:31;;;;;;;165.82;83.47;;;18.70;54.40;;;;;;5115680;28;20031;-77
2022/12/29 12:13:12;;;;;;;150.27;81.72;;;18.30;55.60;;;;;;5084585;28;20020;-77
2022/12/29 12:15:47;;;;;;;159.38;80.65;;;18.20;56.00;;;;;;5096055;27;20400;-77
2022/12/29 12:18:25;;;;;;;136.55;79.90;;;18.10;57.40;;;;;;5097448;28;20118;-77
2022/12/29 12:21:17;;;;;;;141.60;74.97;;;18.40;56.40;;;;;;5114752;28;20047;-77
2022/12/29 12:24:01;;;;;;;128.13;68.43;;;18.40;55.80;;;;;;5108005;27;20024;-77
2022/12/29 12:26:46;;;;;;;125.05;66.07;;;18.40;55.30;;;;;;5109580;27;20085;-77
2022/12/29 12:29:38;;;;;;;127.45;66.20;;;17.90;56.40;;;;;;5111525;27;20032;-77
2022/12/29 12:32:42;;;;;;;145.23;77.22;;;17.80;57.10;;;;;;5109109;27;20373;-77
2022/12/29 12:35:14;;;;;;;144.80;70.82;;;17.50;57.80;;;;;;5089808;27;20262;-77
2022/12/29 12:38:08;;;;;;;135.98;67.78;;;17.60;57.70;;;;;;5118092;27;20545;-78
2022/12/29 12:40:39;;;;;;;131.95;68.32;;;17.60;57.60;;;;;;5109093;27;20397;-78
2022/12/29 12:43:43;;;;;;;135.52;69.60;;;17.70;57.00;;;;;;5111514;27;20076;-78
2022/12/29 12:46:09;;;;;;;137.40;71.30;;;17.30;57.60;;;;;;5111339;27;20027;-78
2022/12/29 12:48:55;;;;;;;138.55;72.03;;;17.40;57.50;;;;;;5116458;28;20034;-78
2022/12/29 12:51:36;;;;;;;130.60;69.03;;;17.30;60.70;;;;;;5115388;28;20042;-78
2022/12/29 12:54:08;;;;;;;138.13;67.32;;;17.30;61.50;;;;;;5115667;27;20038;-78
2022/12/29 12:57:07;;;;;;;124.63;64.90;;;17.20;61.10;;;;;;5113992;27;20039;-78
2022/12/29 12:59:38;;;;;;;145.57;73.00;;;17.20;61.10;;;;;;5113598;28;20046;-77
2022/12/29 13:02:25;;;;;;;151.60;75.85;;;17.00;61.90;;;;;;5113581;27;20186;-78
2022/12/29 13:05:35;;;;;;;133.00;72.05;;;16.70;63.70;;;;;;5114086;28;20015;-78
2022/12/29 13:08:19;;;;;;;146.05;75.85;;;16.70;63.30;;;;;;5055619;28;20136;-78
2022/12/29 13:10:57;;;;;;;158.00;74.68;;;16.80;63.70;;;;;;5044354;28;20095;-78
2022/12/29 13:14:04;;;;;;;151.57;78.40;;;16.60;65.30;;;;;;5051284;28;20048;-78
2022/12/29 13:16:54;;;;;;;162.13;82.60;;;16.50;66.60;;;;;;5013599;28;20530;-78
2022/12/29 13:19:28;;;;;;;148.10;78.72;;;16.60;66.20;;;;;;5047517;28;20555;-78
2022/12/29 13:22:32;;;;;;;150.27;73.65;;;16.60;65.50;;;;;;5053231;28;20058;-78
2022/12/29 13:25:19;;;;;;;140.75;74.18;;;16.60;64.70;;;;;;5012478;28;20026;-78
2022/12/29 13:28:05;;;;;;;153.07;75.07;;;16.60;65.40;;;;;;5013080;28;20041;-78
2022/12/29 13:31:09;;;;;;;143.90;75.38;;;16.70;64.80;;;;;;5012972;28;20037;-78
2022/12/29 13:33:40;;;;;;;175.38;80.40;;;16.60;67.60;;;;;;5012992;28;20045;-78
2022/12/29 13:36:36;;;;;;;169.68;78.97;;;16.60;67.90;;;;;;5012125;28;20036;-77
2022/12/29 13:39:10;;;;;;;143.70;72.80;;;16.80;68.50;;;;;;5035896;28;20052;-78
2022/12/29 13:41:52;;;;;;;183.35;77.93;;;17.00;65.90;;;;;;5052669;28;20053;-78